sensor_id;sensor_type;location;lat;lon;timestamp;P1;durP1;ratioP1;P2;durP2;ratioP2
42030;SDS011;27709;52.036;5.906;2023-07-29T00:01:31;3.47;;;2.63;;
42030;SDS011;27709;52.036;5.906;2023-07-29T00:03:58;4.10;;;2.63;;
42030;SDS011;27709;52.036;5.906;2023-07-29T00:06:24;5.00;;;3.33;;
42030;SDS011;27709;52.036;5.906;2023-07-29T00:08:49;6.70;;;3.63;;
42030;SDS011;27709;52.036;5.906;2023-07-29T00:11:15;4.90;;;2.67;;
42030;SDS011;27709;52.036;5.906;2023-07-29T00:13:40;5.10;;;3.40;;
42030;SDS011;27709;52.036;5.906;2023-07-29T00:16:06;5.50;;;3.22;;
42030;SDS011;27709;52.036;5.906;2023-07-29T00:18:31;4.15;;;2.90;;
42030;SDS011;27709;52.036;5.906;2023-07-29T00:20:57;5.00;;;3.30;;
42030;SDS011;27709;52.036;5.906;2023-07-29T00:23:23;4.10;;;2.92;;
42030;SDS011;27709;52.036;5.906;2023-07-29T00:25:48;6.55;;;3.40;;
42030;SDS011;27709;52.036;5.906;2023-07-29T00:28:14;4.85;;;3.00;;
42030;SDS011;27709;52.036;5.906;2023-07-29T00:30:39;5.03;;;3.00;;
42030;SDS011;27709;52.036;5.906;2023-07-29T00:33:05;4.65;;;2.60;;
42030;SDS011;27709;52.036;5.906;2023-07-29T00:35:34;4.43;;;2.53;;
42030;SDS011;27709;52.036;5.906;2023-07-29T00:37:59;3.33;;;2.45;;
42030;SDS011;27709;52.036;5.906;2023-07-29T00:40:25;5.22;;;2.65;;
42030;SDS011;27709;52.036;5.906;2023-07-29T00:42:53;4.30;;;2.50;;
42030;SDS011;27709;52.036;5.906;2023-07-29T00:45:19;3.92;;;2.17;;
42030;SDS011;27709;52.036;5.906;2023-07-29T00:47:45;5.80;;;2.47;;
42030;SDS011;27709;52.036;5.906;2023-07-29T00:50:12;5.05;;;2.58;;
42030;SDS011;27709;52.036;5.906;2023-07-29T00:52:38;5.05;;;2.47;;
42030;SDS011;27709;52.036;5.906;2023-07-29T00:55:04;3.22;;;2.47;;
42030;SDS011;27709;52.036;5.906;2023-07-29T00:57:30;5.35;;;2.65;;
42030;SDS011;27709;52.036;5.906;2023-07-29T01:00:00;4.82;;;2.50;;
42030;SDS011;27709;52.036;5.906;2023-07-29T01:02:29;4.97;;;2.13;;
42030;SDS011;27709;52.036;5.906;2023-07-29T01:04:57;5.07;;;2.13;;
42030;SDS011;27709;52.036;5.906;2023-07-29T01:07:44;3.65;;;2.08;;
42030;SDS011;27709;52.036;5.906;2023-07-29T01:13:11;5.13;;;2.72;;
42030;SDS011;27709;52.036;5.906;2023-07-29T01:15:49;3.60;;;2.60;;
42030;SDS011;27709;52.036;5.906;2023-07-29T01:18:31;5.30;;;2.75;;
42030;SDS011;27709;52.036;5.906;2023-07-29T01:21:03;4.35;;;2.58;;
42030;SDS011;27709;52.036;5.906;2023-07-29T01:23:30;5.07;;;2.83;;
42030;SDS011;27709;52.036;5.906;2023-07-29T01:25:57;3.75;;;2.53;;
42030;SDS011;27709;52.036;5.906;2023-07-29T01:28:22;4.63;;;2.67;;
42030;SDS011;27709;52.036;5.906;2023-07-29T01:30:49;3.78;;;2.83;;
42030;SDS011;27709;52.036;5.906;2023-07-29T01:33:25;4.38;;;2.60;;
42030;SDS011;27709;52.036;5.906;2023-07-29T01:35:56;4.85;;;2.70;;
42030;SDS011;27709;52.036;5.906;2023-07-29T01:38:29;5.82;;;2.30;;
42030;SDS011;27709;52.036;5.906;2023-07-29T01:41:03;4.75;;;3.00;;
42030;SDS011;27709;52.036;5.906;2023-07-29T01:43:32;3.72;;;2.63;;
42030;SDS011;27709;52.036;5.906;2023-07-29T01:45:58;6.18;;;3.00;;
42030;SDS011;27709;52.036;5.906;2023-07-29T01:48:25;4.22;;;3.22;;
42030;SDS011;27709;52.036;5.906;2023-07-29T01:50:52;8.43;;;3.25;;
42030;SDS011;27709;52.036;5.906;2023-07-29T01:53:17;4.35;;;2.30;;
42030;SDS011;27709;52.036;5.906;2023-07-29T01:55:43;6.93;;;3.30;;
42030;SDS011;27709;52.036;5.906;2023-07-29T01:58:10;4.28;;;2.63;;
42030;SDS011;27709;52.036;5.906;2023-07-29T02:00:36;4.15;;;2.80;;
42030;SDS011;27709;52.036;5.906;2023-07-29T02:03:01;4.93;;;2.70;;
42030;SDS011;27709;52.036;5.906;2023-07-29T02:05:27;3.95;;;2.53;;
42030;SDS011;27709;52.036;5.906;2023-07-29T02:07:52;5.07;;;3.30;;
42030;SDS011;27709;52.036;5.906;2023-07-29T02:10:18;5.78;;;2.83;;
42030;SDS011;27709;52.036;5.906;2023-07-29T02:12:44;3.95;;;2.70;;
42030;SDS011;27709;52.036;5.906;2023-07-29T02:15:09;5.22;;;3.00;;
42030;SDS011;27709;52.036;5.906;2023-07-29T02:17:35;4.88;;;2.80;;
42030;SDS011;27709;52.036;5.906;2023-07-29T02:20:02;4.80;;;2.90;;
42030;SDS011;27709;52.036;5.906;2023-07-29T02:22:28;5.78;;;3.00;;
42030;SDS011;27709;52.036;5.906;2023-07-29T02:24:54;3.70;;;2.80;;
42030;SDS011;27709;52.036;5.906;2023-07-29T02:27:20;4.50;;;2.63;;
42030;SDS011;27709;52.036;5.906;2023-07-29T02:29:45;4.28;;;2.50;;
42030;SDS011;27709;52.036;5.906;2023-07-29T02:32:11;4.13;;;2.72;;
42030;SDS011;27709;52.036;5.906;2023-07-29T02:34:36;4.97;;;2.70;;
42030;SDS011;27709;52.036;5.906;2023-07-29T02:37:02;4.82;;;2.72;;
42030;SDS011;27709;52.036;5.906;2023-07-29T02:39:28;5.63;;;2.58;;
42030;SDS011;27709;52.036;5.906;2023-07-29T02:41:53;3.60;;;2.35;;
42030;SDS011;27709;52.036;5.906;2023-07-29T02:44:20;4.88;;;2.45;;
42030;SDS011;27709;52.036;5.906;2023-07-29T02:46:46;6.80;;;3.40;;
42030;SDS011;27709;52.036;5.906;2023-07-29T02:49:11;4.68;;;3.05;;
42030;SDS011;27709;52.036;5.906;2023-07-29T02:51:37;5.82;;;3.65;;
42030;SDS011;27709;52.036;5.906;2023-07-29T02:54:02;7.03;;;4.78;;
42030;SDS011;27709;52.036;5.906;2023-07-29T02:56:28;11.57;;;5.93;;
42030;SDS011;27709;52.036;5.906;2023-07-29T02:58:55;9.15;;;5.25;;
42030;SDS011;27709;52.036;5.906;2023-07-29T03:01:22;8.68;;;5.55;;
42030;SDS011;27709;52.036;5.906;2023-07-29T03:03:50;7.63;;;5.50;;
42030;SDS011;27709;52.036;5.906;2023-07-29T03:06:15;9.57;;;5.90;;
42030;SDS011;27709;52.036;5.906;2023-07-29T03:08:41;11.23;;;6.60;;
42030;SDS011;27709;52.036;5.906;2023-07-29T03:11:08;7.60;;;5.35;;
42030;SDS011;27709;52.036;5.906;2023-07-29T03:13:35;9.38;;;5.35;;
42030;SDS011;27709;52.036;5.906;2023-07-29T03:16:04;8.48;;;5.43;;
42030;SDS011;27709;52.036;5.906;2023-07-29T03:18:31;7.47;;;4.82;;
42030;SDS011;27709;52.036;5.906;2023-07-29T03:20:56;8.38;;;5.72;;
42030;SDS011;27709;52.036;5.906;2023-07-29T03:23:22;10.40;;;5.97;;
42030;SDS011;27709;52.036;5.906;2023-07-29T03:25:49;10.43;;;6.28;;
42030;SDS011;27709;52.036;5.906;2023-07-29T03:28:16;9.25;;;5.97;;
42030;SDS011;27709;52.036;5.906;2023-07-29T03:30:42;12.50;;;6.20;;
42030;SDS011;27709;52.036;5.906;2023-07-29T03:33:07;10.52;;;6.68;;
42030;SDS011;27709;52.036;5.906;2023-07-29T03:35:33;10.73;;;6.72;;
42030;SDS011;27709;52.036;5.906;2023-07-29T03:37:58;8.95;;;6.28;;
42030;SDS011;27709;52.036;5.906;2023-07-29T03:40:24;8.23;;;6.05;;
42030;SDS011;27709;52.036;5.906;2023-07-29T03:42:49;8.90;;;5.90;;
42030;SDS011;27709;52.036;5.906;2023-07-29T03:45:15;8.52;;;5.10;;
42030;SDS011;27709;52.036;5.906;2023-07-29T03:47:40;7.75;;;4.85;;
42030;SDS011;27709;52.036;5.906;2023-07-29T03:50:06;7.72;;;5.15;;
42030;SDS011;27709;52.036;5.906;2023-07-29T03:52:33;8.98;;;5.47;;
42030;SDS011;27709;52.036;5.906;2023-07-29T03:54:58;9.35;;;5.88;;
42030;SDS011;27709;52.036;5.906;2023-07-29T03:57:24;8.32;;;5.88;;
42030;SDS011;27709;52.036;5.906;2023-07-29T03:59:49;11.00;;;6.47;;
42030;SDS011;27709;52.036;5.906;2023-07-29T04:02:15;8.80;;;5.53;;
42030;SDS011;27709;52.036;5.906;2023-07-29T04:04:40;9.10;;;5.78;;
42030;SDS011;27709;52.036;5.906;2023-07-29T04:07:07;10.57;;;6.45;;
42030;SDS011;27709;52.036;5.906;2023-07-29T04:09:34;11.05;;;5.90;;
42030;SDS011;27709;52.036;5.906;2023-07-29T04:12:00;7.28;;;5.05;;
42030;SDS011;27709;52.036;5.906;2023-07-29T04:14:25;10.27;;;5.90;;
42030;SDS011;27709;52.036;5.906;2023-07-29T04:16:51;8.75;;;5.70;;
42030;SDS011;27709;52.036;5.906;2023-07-29T04:19:16;7.47;;;5.03;;
42030;SDS011;27709;52.036;5.906;2023-07-29T04:21:42;10.05;;;5.35;;
42030;SDS011;27709;52.036;5.906;2023-07-29T04:24:07;7.32;;;4.22;;
42030;SDS011;27709;52.036;5.906;2023-07-29T04:26:33;6.97;;;4.47;;
42030;SDS011;27709;52.036;5.906;2023-07-29T04:28:58;6.10;;;4.35;;
42030;SDS011;27709;52.036;5.906;2023-07-29T04:31:24;6.63;;;4.50;;
42030;SDS011;27709;52.036;5.906;2023-07-29T04:33:49;6.35;;;4.68;;
42030;SDS011;27709;52.036;5.906;2023-07-29T04:36:15;8.75;;;5.03;;
42030;SDS011;27709;52.036;5.906;2023-07-29T04:38:40;6.55;;;3.97;;
42030;SDS011;27709;52.036;5.906;2023-07-29T04:41:06;7.65;;;4.60;;
42030;SDS011;27709;52.036;5.906;2023-07-29T04:43:33;6.78;;;3.90;;
42030;SDS011;27709;52.036;5.906;2023-07-29T04:45:59;8.95;;;4.00;;
42030;SDS011;27709;52.036;5.906;2023-07-29T04:48:24;6.50;;;3.65;;
42030;SDS011;27709;52.036;5.906;2023-07-29T04:50:50;5.88;;;3.85;;
42030;SDS011;27709;52.036;5.906;2023-07-29T04:53:16;5.68;;;3.50;;
42030;SDS011;27709;52.036;5.906;2023-07-29T04:55:41;5.55;;;3.25;;
42030;SDS011;27709;52.036;5.906;2023-07-29T04:58:08;5.57;;;3.63;;
42030;SDS011;27709;52.036;5.906;2023-07-29T05:00:34;6.47;;;3.38;;
42030;SDS011;27709;52.036;5.906;2023-07-29T05:02:59;5.05;;;3.33;;
42030;SDS011;27709;52.036;5.906;2023-07-29T05:05:26;6.85;;;3.97;;
42030;SDS011;27709;52.036;5.906;2023-07-29T05:07:51;6.70;;;4.00;;
42030;SDS011;27709;52.036;5.906;2023-07-29T05:10:17;6.00;;;3.70;;
42030;SDS011;27709;52.036;5.906;2023-07-29T05:12:43;4.85;;;3.20;;
42030;SDS011;27709;52.036;5.906;2023-07-29T05:15:08;7.93;;;3.03;;
42030;SDS011;27709;52.036;5.906;2023-07-29T05:17:34;5.35;;;3.30;;
42030;SDS011;27709;52.036;5.906;2023-07-29T05:20:00;5.78;;;3.47;;
42030;SDS011;27709;52.036;5.906;2023-07-29T05:22:25;6.80;;;3.70;;
42030;SDS011;27709;52.036;5.906;2023-07-29T05:24:51;6.72;;;3.25;;
42030;SDS011;27709;52.036;5.906;2023-07-29T05:27:16;5.30;;;2.97;;
42030;SDS011;27709;52.036;5.906;2023-07-29T05:29:42;5.65;;;3.28;;
42030;SDS011;27709;52.036;5.906;2023-07-29T05:32:07;5.72;;;3.08;;
42030;SDS011;27709;52.036;5.906;2023-07-29T05:34:33;5.13;;;3.00;;
42030;SDS011;27709;52.036;5.906;2023-07-29T05:36:58;4.60;;;2.65;;
42030;SDS011;27709;52.036;5.906;2023-07-29T05:39:24;5.50;;;2.85;;
42030;SDS011;27709;52.036;5.906;2023-07-29T05:41:50;4.78;;;2.78;;
42030;SDS011;27709;52.036;5.906;2023-07-29T05:44:15;5.50;;;2.80;;
42030;SDS011;27709;52.036;5.906;2023-07-29T05:46:41;5.63;;;2.78;;
42030;SDS011;27709;52.036;5.906;2023-07-29T05:49:06;5.63;;;2.47;;
42030;SDS011;27709;52.036;5.906;2023-07-29T05:51:32;6.05;;;2.50;;
42030;SDS011;27709;52.036;5.906;2023-07-29T05:53:57;4.03;;;2.08;;
42030;SDS011;27709;52.036;5.906;2023-07-29T05:56:25;5.35;;;2.38;;
42030;SDS011;27709;52.036;5.906;2023-07-29T05:58:51;4.50;;;2.72;;
42030;SDS011;27709;52.036;5.906;2023-07-29T06:01:18;4.40;;;2.58;;
42030;SDS011;27709;52.036;5.906;2023-07-29T06:03:46;5.32;;;2.70;;
42030;SDS011;27709;52.036;5.906;2023-07-29T06:06:12;5.13;;;2.80;;
42030;SDS011;27709;52.036;5.906;2023-07-29T06:08:39;5.72;;;2.53;;
42030;SDS011;27709;52.036;5.906;2023-07-29T06:11:05;5.53;;;2.67;;
42030;SDS011;27709;52.036;5.906;2023-07-29T06:13:31;5.10;;;2.90;;
42030;SDS011;27709;52.036;5.906;2023-07-29T06:15:57;3.95;;;2.15;;
42030;SDS011;27709;52.036;5.906;2023-07-29T06:18:23;5.18;;;2.45;;
42030;SDS011;27709;52.036;5.906;2023-07-29T06:20:54;4.95;;;2.80;;
42030;SDS011;27709;52.036;5.906;2023-07-29T06:23:26;5.85;;;3.05;;
42030;SDS011;27709;52.036;5.906;2023-07-29T06:25:51;5.70;;;2.80;;
42030;SDS011;27709;52.036;5.906;2023-07-29T06:28:17;4.97;;;2.35;;
42030;SDS011;27709;52.036;5.906;2023-07-29T06:33:22;4.85;;;3.03;;
42030;SDS011;27709;52.036;5.906;2023-07-29T06:35:48;5.75;;;3.00;;
42030;SDS011;27709;52.036;5.906;2023-07-29T06:38:18;4.78;;;2.90;;
42030;SDS011;27709;52.036;5.906;2023-07-29T06:40:46;5.93;;;2.90;;
42030;SDS011;27709;52.036;5.906;2023-07-29T06:43:17;5.80;;;3.10;;
42030;SDS011;27709;52.036;5.906;2023-07-29T06:45:46;5.18;;;2.33;;
42030;SDS011;27709;52.036;5.906;2023-07-29T06:48:11;5.13;;;2.10;;
42030;SDS011;27709;52.036;5.906;2023-07-29T06:50:38;4.80;;;2.00;;
42030;SDS011;27709;52.036;5.906;2023-07-29T06:53:04;5.20;;;2.50;;
42030;SDS011;27709;52.036;5.906;2023-07-29T06:55:29;4.57;;;2.40;;
42030;SDS011;27709;52.036;5.906;2023-07-29T06:57:56;4.75;;;2.25;;
42030;SDS011;27709;52.036;5.906;2023-07-29T07:00:25;4.47;;;2.88;;
42030;SDS011;27709;52.036;5.906;2023-07-29T07:02:53;6.82;;;2.40;;
42030;SDS011;27709;52.036;5.906;2023-07-29T07:05:24;5.13;;;3.00;;
42030;SDS011;27709;52.036;5.906;2023-07-29T07:07:50;5.00;;;2.60;;
42030;SDS011;27709;52.036;5.906;2023-07-29T07:10:16;5.25;;;2.95;;
42030;SDS011;27709;52.036;5.906;2023-07-29T07:12:41;5.55;;;2.60;;
42030;SDS011;27709;52.036;5.906;2023-07-29T07:15:07;5.38;;;2.72;;
42030;SDS011;27709;52.036;5.906;2023-07-29T07:17:36;4.97;;;2.58;;
42030;SDS011;27709;52.036;5.906;2023-07-29T07:20:21;6.50;;;2.00;;
42030;SDS011;27709;52.036;5.906;2023-07-29T07:22:49;6.35;;;2.90;;
42030;SDS011;27709;52.036;5.906;2023-07-29T07:25:17;4.57;;;2.30;;
42030;SDS011;27709;52.036;5.906;2023-07-29T07:27:44;4.65;;;2.53;;
42030;SDS011;27709;52.036;5.906;2023-07-29T07:30:11;4.88;;;2.88;;
42030;SDS011;27709;52.036;5.906;2023-07-29T07:32:42;6.70;;;3.83;;
42030;SDS011;27709;52.036;5.906;2023-07-29T07:35:08;5.25;;;3.63;;
42030;SDS011;27709;52.036;5.906;2023-07-29T07:37:34;4.95;;;3.10;;
42030;SDS011;27709;52.036;5.906;2023-07-29T07:40:00;3.95;;;2.40;;
42030;SDS011;27709;52.036;5.906;2023-07-29T07:42:29;5.88;;;3.47;;
42030;SDS011;27709;52.036;5.906;2023-07-29T07:44:54;5.45;;;3.55;;
42030;SDS011;27709;52.036;5.906;2023-07-29T07:47:20;5.90;;;4.25;;
42030;SDS011;27709;52.036;5.906;2023-07-29T07:49:46;5.22;;;3.10;;
42030;SDS011;27709;52.036;5.906;2023-07-29T07:52:14;3.55;;;2.90;;
42030;SDS011;27709;52.036;5.906;2023-07-29T07:54:40;4.75;;;2.92;;
42030;SDS011;27709;52.036;5.906;2023-07-29T07:57:06;5.50;;;3.70;;
42030;SDS011;27709;52.036;5.906;2023-07-29T07:59:31;4.90;;;3.15;;
42030;SDS011;27709;52.036;5.906;2023-07-29T08:01:57;5.35;;;3.05;;
42030;SDS011;27709;52.036;5.906;2023-07-29T08:04:23;3.75;;;2.88;;
42030;SDS011;27709;52.036;5.906;2023-07-29T08:06:48;3.35;;;2.40;;
42030;SDS011;27709;52.036;5.906;2023-07-29T08:09:14;4.28;;;2.75;;
42030;SDS011;27709;52.036;5.906;2023-07-29T08:11:42;4.70;;;2.50;;
42030;SDS011;27709;52.036;5.906;2023-07-29T08:14:08;5.10;;;2.90;;
42030;SDS011;27709;52.036;5.906;2023-07-29T08:16:33;4.28;;;2.78;;
42030;SDS011;27709;52.036;5.906;2023-07-29T08:18:59;3.42;;;2.10;;
42030;SDS011;27709;52.036;5.906;2023-07-29T08:21:26;4.03;;;2.80;;
42030;SDS011;27709;52.036;5.906;2023-07-29T08:23:52;6.07;;;3.58;;
42030;SDS011;27709;52.036;5.906;2023-07-29T08:26:17;4.57;;;2.42;;
42030;SDS011;27709;52.036;5.906;2023-07-29T08:28:43;5.32;;;3.08;;
42030;SDS011;27709;52.036;5.906;2023-07-29T08:31:08;5.32;;;3.22;;
42030;SDS011;27709;52.036;5.906;2023-07-29T08:33:34;5.93;;;3.47;;
42030;SDS011;27709;52.036;5.906;2023-07-29T08:36:00;5.35;;;2.85;;
42030;SDS011;27709;52.036;5.906;2023-07-29T08:38:26;5.20;;;2.90;;
42030;SDS011;27709;52.036;5.906;2023-07-29T08:43:43;3.17;;;2.70;;
42030;SDS011;27709;52.036;5.906;2023-07-29T08:46:19;3.97;;;2.45;;
42030;SDS011;27709;52.036;5.906;2023-07-29T08:48:45;4.00;;;2.75;;
42030;SDS011;27709;52.036;5.906;2023-07-29T08:51:11;4.20;;;2.40;;
42030;SDS011;27709;52.036;5.906;2023-07-29T08:53:38;3.50;;;2.45;;
42030;SDS011;27709;52.036;5.906;2023-07-29T08:56:05;4.55;;;2.50;;
42030;SDS011;27709;52.036;5.906;2023-07-29T08:58:31;3.92;;;2.30;;
42030;SDS011;27709;52.036;5.906;2023-07-29T09:00:58;3.05;;;2.22;;
42030;SDS011;27709;52.036;5.906;2023-07-29T09:03:23;4.65;;;2.08;;
42030;SDS011;27709;52.036;5.906;2023-07-29T09:05:49;4.13;;;2.10;;
42030;SDS011;27709;52.036;5.906;2023-07-29T09:08:15;3.28;;;1.80;;
42030;SDS011;27709;52.036;5.906;2023-07-29T09:10:41;2.55;;;1.80;;
42030;SDS011;27709;52.036;5.906;2023-07-29T09:13:07;2.78;;;1.80;;
42030;SDS011;27709;52.036;5.906;2023-07-29T09:15:34;2.55;;;1.50;;
42030;SDS011;27709;52.036;5.906;2023-07-29T09:18:17;4.45;;;1.80;;
42030;SDS011;27709;52.036;5.906;2023-07-29T09:20:45;3.63;;;2.30;;
42030;SDS011;27709;52.036;5.906;2023-07-29T09:23:12;3.58;;;1.70;;
42030;SDS011;27709;52.036;5.906;2023-07-29T09:25:38;2.92;;;1.70;;
42030;SDS011;27709;52.036;5.906;2023-07-29T09:28:08;2.40;;;1.45;;
42030;SDS011;27709;52.036;5.906;2023-07-29T09:30:35;3.83;;;2.05;;
42030;SDS011;27709;52.036;5.906;2023-07-29T09:33:05;2.58;;;1.80;;
42030;SDS011;27709;52.036;5.906;2023-07-29T09:35:32;3.33;;;1.95;;
42030;SDS011;27709;52.036;5.906;2023-07-29T09:38:01;4.38;;;1.80;;
42030;SDS011;27709;52.036;5.906;2023-07-29T09:40:26;3.30;;;1.67;;
42030;SDS011;27709;52.036;5.906;2023-07-29T09:42:55;4.20;;;2.10;;
42030;SDS011;27709;52.036;5.906;2023-07-29T09:45:24;3.60;;;1.42;;
42030;SDS011;27709;52.036;5.906;2023-07-29T09:47:53;2.63;;;1.20;;
42030;SDS011;27709;52.036;5.906;2023-07-29T09:50:24;3.10;;;1.38;;
42030;SDS011;27709;52.036;5.906;2023-07-29T09:52:51;2.28;;;1.15;;
42030;SDS011;27709;52.036;5.906;2023-07-29T09:55:18;2.65;;;1.13;;
42030;SDS011;27709;52.036;5.906;2023-07-29T09:57:52;3.13;;;1.58;;
42030;SDS011;27709;52.036;5.906;2023-07-29T10:00:22;2.67;;;1.10;;
42030;SDS011;27709;52.036;5.906;2023-07-29T10:02:49;1.73;;;0.85;;
42030;SDS011;27709;52.036;5.906;2023-07-29T10:05:16;1.70;;;1.10;;
42030;SDS011;27709;52.036;5.906;2023-07-29T10:08:05;1.48;;;0.98;;
42030;SDS011;27709;52.036;5.906;2023-07-29T10:10:37;2.13;;;0.90;;
42030;SDS011;27709;52.036;5.906;2023-07-29T10:13:04;1.60;;;0.80;;
42030;SDS011;27709;52.036;5.906;2023-07-29T10:15:33;2.65;;;0.85;;
42030;SDS011;27709;52.036;5.906;2023-07-29T10:17:59;2.78;;;0.80;;
42030;SDS011;27709;52.036;5.906;2023-07-29T10:20:30;1.50;;;0.80;;
42030;SDS011;27709;52.036;5.906;2023-07-29T10:23:03;1.92;;;0.70;;
42030;SDS011;27709;52.036;5.906;2023-07-29T10:25:37;2.10;;;0.80;;
42030;SDS011;27709;52.036;5.906;2023-07-29T10:28:12;2.95;;;0.77;;
42030;SDS011;27709;52.036;5.906;2023-07-29T10:30:47;2.88;;;0.80;;
42030;SDS011;27709;52.036;5.906;2023-07-29T10:33:14;2.47;;;0.68;;
42030;SDS011;27709;52.036;5.906;2023-07-29T10:35:46;1.33;;;0.63;;
42030;SDS011;27709;52.036;5.906;2023-07-29T10:38:12;1.55;;;0.70;;
42030;SDS011;27709;52.036;5.906;2023-07-29T10:40:48;1.98;;;0.70;;
42030;SDS011;27709;52.036;5.906;2023-07-29T10:43:25;0.98;;;0.60;;
42030;SDS011;27709;52.036;5.906;2023-07-29T10:49:00;1.95;;;0.55;;
42030;SDS011;27709;52.036;5.906;2023-07-29T10:51:42;2.90;;;0.50;;
42030;SDS011;27709;52.036;5.906;2023-07-29T10:54:12;2.30;;;0.85;;
42030;SDS011;27709;52.036;5.906;2023-07-29T10:56:43;2.33;;;0.80;;
42030;SDS011;27709;52.036;5.906;2023-07-29T11:01:51;1.55;;;0.90;;
42030;SDS011;27709;52.036;5.906;2023-07-29T11:04:26;2.50;;;0.82;;
42030;SDS011;27709;52.036;5.906;2023-07-29T11:09:52;2.35;;;1.00;;
42030;SDS011;27709;52.036;5.906;2023-07-29T11:15:23;2.08;;;1.10;;
42030;SDS011;27709;52.036;5.906;2023-07-29T11:20:18;1.48;;;0.90;;
42030;SDS011;27709;52.036;5.906;2023-07-29T11:22:44;2.63;;;1.00;;
42030;SDS011;27709;52.036;5.906;2023-07-29T11:25:11;2.40;;;1.30;;
42030;SDS011;27709;52.036;5.906;2023-07-29T11:27:39;1.73;;;0.90;;
42030;SDS011;27709;52.036;5.906;2023-07-29T11:30:15;1.70;;;0.90;;
42030;SDS011;27709;52.036;5.906;2023-07-29T11:32:41;3.22;;;0.93;;
42030;SDS011;27709;52.036;5.906;2023-07-29T11:35:09;1.90;;;1.00;;
42030;SDS011;27709;52.036;5.906;2023-07-29T11:37:42;2.03;;;0.90;;
42030;SDS011;27709;52.036;5.906;2023-07-29T11:40:22;2.03;;;1.00;;
42030;SDS011;27709;52.036;5.906;2023-07-29T11:42:49;2.53;;;0.85;;
42030;SDS011;27709;52.036;5.906;2023-07-29T11:45:22;1.77;;;0.80;;
42030;SDS011;27709;52.036;5.906;2023-07-29T11:47:55;1.77;;;0.90;;
42030;SDS011;27709;52.036;5.906;2023-07-29T11:50:20;2.17;;;0.95;;
42030;SDS011;27709;52.036;5.906;2023-07-29T11:52:46;3.03;;;0.70;;
42030;SDS011;27709;52.036;5.906;2023-07-29T11:55:14;1.35;;;0.65;;
42030;SDS011;27709;52.036;5.906;2023-07-29T11:57:40;1.85;;;0.80;;
42030;SDS011;27709;52.036;5.906;2023-07-29T12:00:07;1.48;;;0.60;;
42030;SDS011;27709;52.036;5.906;2023-07-29T12:02:37;1.30;;;0.50;;
42030;SDS011;27709;52.036;5.906;2023-07-29T12:05:04;1.13;;;0.57;;
42030;SDS011;27709;52.036;5.906;2023-07-29T12:07:35;0.68;;;0.50;;
42030;SDS011;27709;52.036;5.906;2023-07-29T12:12:46;1.27;;;0.70;;
42030;SDS011;27709;52.036;5.906;2023-07-29T12:15:12;1.13;;;0.52;;
42030;SDS011;27709;52.036;5.906;2023-07-29T12:17:41;1.20;;;0.90;;
42030;SDS011;27709;52.036;5.906;2023-07-29T12:20:10;1.60;;;0.70;;
42030;SDS011;27709;52.036;5.906;2023-07-29T12:22:36;1.60;;;0.93;;
42030;SDS011;27709;52.036;5.906;2023-07-29T12:25:02;2.22;;;1.00;;
42030;SDS011;27709;52.036;5.906;2023-07-29T12:27:29;3.08;;;0.90;;
42030;SDS011;27709;52.036;5.906;2023-07-29T12:29:56;2.72;;;1.08;;
42030;SDS011;27709;52.036;5.906;2023-07-29T12:32:24;1.80;;;0.98;;
42030;SDS011;27709;52.036;5.906;2023-07-29T12:35:09;1.50;;;0.70;;
42030;SDS011;27709;52.036;5.906;2023-07-29T12:37:38;1.30;;;0.70;;
42030;SDS011;27709;52.036;5.906;2023-07-29T12:40:07;1.60;;;0.80;;
42030;SDS011;27709;52.036;5.906;2023-07-29T12:42:48;1.60;;;0.80;;
42030;SDS011;27709;52.036;5.906;2023-07-29T12:45:15;2.75;;;1.02;;
42030;SDS011;27709;52.036;5.906;2023-07-29T12:47:43;1.45;;;0.60;;
42030;SDS011;27709;52.036;5.906;2023-07-29T12:50:08;2.17;;;1.00;;
42030;SDS011;27709;52.036;5.906;2023-07-29T12:52:48;1.40;;;0.55;;
42030;SDS011;27709;52.036;5.906;2023-07-29T12:55:18;2.47;;;0.60;;
42030;SDS011;27709;52.036;5.906;2023-07-29T12:57:55;1.70;;;0.70;;
42030;SDS011;27709;52.036;5.906;2023-07-29T13:00:32;2.15;;;0.73;;
42030;SDS011;27709;52.036;5.906;2023-07-29T13:02:58;0.85;;;0.60;;
42030;SDS011;27709;52.036;5.906;2023-07-29T13:05:30;0.73;;;0.50;;
42030;SDS011;27709;52.036;5.906;2023-07-29T13:07:56;1.52;;;0.70;;
42030;SDS011;27709;52.036;5.906;2023-07-29T13:10:36;1.48;;;0.63;;
42030;SDS011;27709;52.036;5.906;2023-07-29T13:13:20;1.20;;;0.57;;
42030;SDS011;27709;52.036;5.906;2023-07-29T13:15:50;1.75;;;0.80;;
42030;SDS011;27709;52.036;5.906;2023-07-29T13:18:38;2.03;;;1.00;;
42030;SDS011;27709;52.036;5.906;2023-07-29T13:21:13;1.48;;;0.90;;
42030;SDS011;27709;52.036;5.906;2023-07-29T13:23:41;2.45;;;1.25;;
42030;SDS011;27709;52.036;5.906;2023-07-29T13:28:38;1.80;;;1.05;;
42030;SDS011;27709;52.036;5.906;2023-07-29T13:31:04;1.40;;;0.90;;
42030;SDS011;27709;52.036;5.906;2023-07-29T13:33:29;3.30;;;1.20;;
42030;SDS011;27709;52.036;5.906;2023-07-29T13:36:02;2.45;;;1.60;;
42030;SDS011;27709;52.036;5.906;2023-07-29T13:38:45;1.90;;;1.48;;
42030;SDS011;27709;52.036;5.906;2023-07-29T13:41:10;2.07;;;1.40;;
42030;SDS011;27709;52.036;5.906;2023-07-29T13:43:36;2.22;;;1.40;;
42030;SDS011;27709;52.036;5.906;2023-07-29T13:46:01;1.73;;;1.23;;
42030;SDS011;27709;52.036;5.906;2023-07-29T13:48:30;1.73;;;1.40;;
42030;SDS011;27709;52.036;5.906;2023-07-29T13:51:00;1.55;;;1.45;;
42030;SDS011;27709;52.036;5.906;2023-07-29T13:53:27;3.50;;;2.15;;
42030;SDS011;27709;52.036;5.906;2023-07-29T13:55:53;3.22;;;2.00;;
42030;SDS011;27709;52.036;5.906;2023-07-29T13:58:18;2.55;;;2.33;;
42030;SDS011;27709;52.036;5.906;2023-07-29T14:00:44;3.58;;;2.67;;
42030;SDS011;27709;52.036;5.906;2023-07-29T14:03:10;2.83;;;1.98;;
42030;SDS011;27709;52.036;5.906;2023-07-29T14:05:35;3.42;;;1.90;;
42030;SDS011;27709;52.036;5.906;2023-07-29T14:10:37;2.42;;;1.52;;
42030;SDS011;27709;52.036;5.906;2023-07-29T14:13:06;5.53;;;2.45;;
42030;SDS011;27709;52.036;5.906;2023-07-29T14:15:35;3.92;;;2.33;;
42030;SDS011;27709;52.036;5.906;2023-07-29T14:18:01;2.97;;;2.25;;
42030;SDS011;27709;52.036;5.906;2023-07-29T14:20:27;2.35;;;1.63;;
42030;SDS011;27709;52.036;5.906;2023-07-29T14:22:56;2.85;;;1.70;;
42030;SDS011;27709;52.036;5.906;2023-07-29T14:25:25;2.20;;;1.95;;
42030;SDS011;27709;52.036;5.906;2023-07-29T14:27:50;2.20;;;1.77;;
42030;SDS011;27709;52.036;5.906;2023-07-29T14:30:16;1.75;;;1.50;;
42030;SDS011;27709;52.036;5.906;2023-07-29T14:32:53;2.05;;;1.73;;
42030;SDS011;27709;52.036;5.906;2023-07-29T14:35:18;3.15;;;2.00;;
42030;SDS011;27709;52.036;5.906;2023-07-29T14:37:47;2.72;;;2.17;;
42030;SDS011;27709;52.036;5.906;2023-07-29T14:40:21;2.90;;;1.25;;
42030;SDS011;27709;52.036;5.906;2023-07-29T14:42:50;2.70;;;1.63;;
42030;SDS011;27709;52.036;5.906;2023-07-29T14:45:28;2.20;;;1.40;;
42030;SDS011;27709;52.036;5.906;2023-07-29T14:48:03;2.53;;;1.55;;
42030;SDS011;27709;52.036;5.906;2023-07-29T14:50:30;2.13;;;1.60;;
42030;SDS011;27709;52.036;5.906;2023-07-29T14:52:58;2.70;;;1.50;;
42030;SDS011;27709;52.036;5.906;2023-07-29T14:55:26;1.20;;;1.00;;
42030;SDS011;27709;52.036;5.906;2023-07-29T15:00:27;1.88;;;1.15;;
42030;SDS011;27709;52.036;5.906;2023-07-29T15:02:52;1.30;;;0.98;;
42030;SDS011;27709;52.036;5.906;2023-07-29T15:05:24;1.08;;;0.88;;
42030;SDS011;27709;52.036;5.906;2023-07-29T15:07:56;1.98;;;1.20;;
42030;SDS011;27709;52.036;5.906;2023-07-29T15:10:24;2.33;;;1.27;;
42030;SDS011;27709;52.036;5.906;2023-07-29T15:12:50;1.90;;;1.27;;
42030;SDS011;27709;52.036;5.906;2023-07-29T15:15:16;2.22;;;1.30;;
42030;SDS011;27709;52.036;5.906;2023-07-29T15:17:42;1.33;;;0.90;;
42030;SDS011;27709;52.036;5.906;2023-07-29T15:20:07;1.67;;;1.02;;
42030;SDS011;27709;52.036;5.906;2023-07-29T15:22:34;2.13;;;1.20;;
42030;SDS011;27709;52.036;5.906;2023-07-29T15:25:00;3.08;;;1.00;;